sensor_id;sensor_type;location;lat;lon;timestamp;temperature;humidity
6958;DHT22;50346;51.268;15.942;2022-07-30T00:02:02;18.90;99.90
6958;DHT22;50346;51.268;15.942;2022-07-30T00:04:29;19.00;99.90
6958;DHT22;50346;51.268;15.942;2022-07-30T00:06:55;19.00;99.90
6958;DHT22;50346;51.268;15.942;2022-07-30T00:09:20;19.00;99.90
6958;DHT22;50346;51.268;15.942;2022-07-30T00:11:46;19.00;99.90
6958;DHT22;50346;51.268;15.942;2022-07-30T00:14:11;19.00;99.90
6958;DHT22;50346;51.268;15.942;2022-07-30T00:16:37;19.00;99.90
6958;DHT22;50346;51.268;15.942;2022-07-30T00:19:03;19.00;99.90
6958;DHT22;50346;51.268;15.942;2022-07-30T00:21:28;19.00;99.90
6958;DHT22;50346;51.268;15.942;2022-07-30T00:23:54;19.00;99.90
6958;DHT22;50346;51.268;15.942;2022-07-30T00:26:19;19.00;99.90
6958;DHT22;50346;51.268;15.942;2022-07-30T00:28:45;18.90;99.90
6958;DHT22;50346;51.268;15.942;2022-07-30T00:31:11;19.00;99.90
6958;DHT22;50346;51.268;15.942;2022-07-30T00:33:37;19.00;99.90
6958;DHT22;50346;51.268;15.942;2022-07-30T00:36:03;19.00;99.90
6958;DHT22;50346;51.268;15.942;2022-07-30T00:38:28;19.00;99.90
6958;DHT22;50346;51.268;15.942;2022-07-30T00:40:54;19.00;99.90
6958;DHT22;50346;51.268;15.942;2022-07-30T00:43:19;19.00;99.90
6958;DHT22;50346;51.268;15.942;2022-07-30T00:45:45;19.00;99.90
6958;DHT22;50346;51.268;15.942;2022-07-30T00:48:12;19.00;99.90
6958;DHT22;50346;51.268;15.942;2022-07-30T00:50:38;19.00;99.90
6958;DHT22;50346;51.268;15.942;2022-07-30T00:53:05;19.00;99.90
6958;DHT22;50346;51.268;15.942;2022-07-30T00:55:31;18.90;99.90
6958;DHT22;50346;51.268;15.942;2022-07-30T00:57:57;18.90;99.90
6958;DHT22;50346;51.268;15.942;2022-07-30T01:00:23;18.90;99.90
6958;DHT22;50346;51.268;15.942;2022-07-30T01:02:49;18.90;99.90
6958;DHT22;50346;51.268;15.942;2022-07-30T01:05:15;18.90;99.90
6958;DHT22;50346;51.268;15.942;2022-07-30T01:07:41;18.90;99.90
6958;DHT22;50346;51.268;15.942;2022-07-30T01:10:08;18.90;99.90
6958;DHT22;50346;51.268;15.942;2022-07-30T01:12:35;18.90;99.90
6958;DHT22;50346;51.268;15.942;2022-07-30T01:15:04;18.90;99.90
6958;DHT22;50346;51.268;15.942;2022-07-30T01:17:30;18.90;99.90
6958;DHT22;50346;51.268;15.942;2022-07-30T01:20:00;18.90;99.90
6958;DHT22;50346;51.268;15.942;2022-07-30T01:22:35;18.90;99.90
6958;DHT22;50346;51.268;15.942;2022-07-30T01:27:51;18.90;99.90
6958;DHT22;50346;51.268;15.942;2022-07-30T01:30:19;18.90;99.90
6958;DHT22;50346;51.268;15.942;2022-07-30T01:32:48;18.90;99.90
6958;DHT22;50346;51.268;15.942;2022-07-30T01:35:15;18.90;99.90
6958;DHT22;50346;51.268;15.942;2022-07-30T01:37:43;18.90;99.90
6958;DHT22;50346;51.268;15.942;2022-07-30T01:40:11;18.90;99.90
6958;DHT22;50346;51.268;15.942;2022-07-30T01:42:40;18.90;99.90
6958;DHT22;50346;51.268;15.942;2022-07-30T01:45:07;18.90;99.90
6958;DHT22;50346;51.268;15.942;2022-07-30T01:47:34;18.90;99.90
6958;DHT22;50346;51.268;15.942;2022-07-30T01:50:02;18.90;99.90
6958;DHT22;50346;51.268;15.942;2022-07-30T01:52:32;18.90;99.90
6958;DHT22;50346;51.268;15.942;2022-07-30T01:54:59;18.90;99.90
6958;DHT22;50346;51.268;15.942;2022-07-30T01:57:26;18.90;99.90
6958;DHT22;50346;51.268;15.942;2022-07-30T01:59:58;18.90;99.90
6958;DHT22;50346;51.268;15.942;2022-07-30T02:02:26;18.90;99.90
6958;DHT22;50346;51.268;15.942;2022-07-30T02:04:52;18.90;99.90
6958;DHT22;50346;51.268;15.942;2022-07-30T02:07:26;18.90;99.90
6958;DHT22;50346;51.268;15.942;2022-07-30T02:09:58;18.90;99.90
6958;DHT22;50346;51.268;15.942;2022-07-30T02:12:26;18.90;99.90
6958;DHT22;50346;51.268;15.942;2022-07-30T02:15:06;18.90;99.90
6958;DHT22;50346;51.268;15.942;2022-07-30T02:17:53;18.90;99.90
6958;DHT22;50346;51.268;15.942;2022-07-30T02:20:21;18.90;99.90
6958;DHT22;50346;51.268;15.942;2022-07-30T02:22:50;18.80;99.90
6958;DHT22;50346;51.268;15.942;2022-07-30T02:25:19;18.90;99.90
6958;DHT22;50346;51.268;15.942;2022-07-30T02:27:49;18.90;99.90
6958;DHT22;50346;51.268;15.942;2022-07-30T02:30:16;18.90;99.90
6958;DHT22;50346;51.268;15.942;2022-07-30T02:32:42;18.90;99.90
6958;DHT22;50346;51.268;15.942;2022-07-30T02:35:20;18.90;99.90
6958;DHT22;50346;51.268;15.942;2022-07-30T02:37:47;18.90;99.90
6958;DHT22;50346;51.268;15.942;2022-07-30T02:40:18;18.90;99.90
6958;DHT22;50346;51.268;15.942;2022-07-30T02:42:47;18.80;99.90
6958;DHT22;50346;51.268;15.942;2022-07-30T02:45:15;18.80;99.90
6958;DHT22;50346;51.268;15.942;2022-07-30T02:50:09;18.60;1.00
6958;DHT22;50346;51.268;15.942;2022-07-30T02:52:39;18.50;1.00
6958;DHT22;50346;51.268;15.942;2022-07-30T02:55:08;18.40;1.00
6958;DHT22;50346;51.268;15.942;2022-07-30T02:57:35;18.40;1.00
6958;DHT22;50346;51.268;15.942;2022-07-30T03:00:04;18.40;1.00
6958;DHT22;50346;51.268;15.942;2022-07-30T03:02:32;18.30;1.00
6958;DHT22;50346;51.268;15.942;2022-07-30T03:04:59;18.30;1.00
6958;DHT22;50346;51.268;15.942;2022-07-30T03:07:26;18.30;1.00
6958;DHT22;50346;51.268;15.942;2022-07-30T03:09:54;18.20;1.00
6958;DHT22;50346;51.268;15.942;2022-07-30T03:12:21;18.20;1.00
6958;DHT22;50346;51.268;15.942;2022-07-30T03:14:46;18.20;1.00
6958;DHT22;50346;51.268;15.942;2022-07-30T03:17:14;18.20;1.00
6958;DHT22;50346;51.268;15.942;2022-07-30T03:19:40;18.20;1.00
6958;DHT22;50346;51.268;15.942;2022-07-30T03:22:07;18.20;1.00
6958;DHT22;50346;51.268;15.942;2022-07-30T03:24:34;18.20;1.00
6958;DHT22;50346;51.268;15.942;2022-07-30T03:27:01;18.30;1.00
6958;DHT22;50346;51.268;15.942;2022-07-30T03:29:28;18.30;1.00
6958;DHT22;50346;51.268;15.942;2022-07-30T03:31:55;18.30;1.00
6958;DHT22;50346;51.268;15.942;2022-07-30T03:34:21;18.40;1.00
6958;DHT22;50346;51.268;15.942;2022-07-30T03:36:48;18.40;1.00
6958;DHT22;50346;51.268;15.942;2022-07-30T03:39:14;18.40;1.00
6958;DHT22;50346;51.268;15.942;2022-07-30T03:41:41;18.50;1.00
6958;DHT22;50346;51.268;15.942;2022-07-30T03:44:07;18.50;1.00
6958;DHT22;50346;51.268;15.942;2022-07-30T03:46:35;18.50;1.00
6958;DHT22;50346;51.268;15.942;2022-07-30T03:49:02;18.50;1.00
6958;DHT22;50346;51.268;15.942;2022-07-30T03:51:28;18.50;1.00
6958;DHT22;50346;51.268;15.942;2022-07-30T03:53:53;18.60;1.00
6958;DHT22;50346;51.268;15.942;2022-07-30T03:56:20;18.60;1.00
6958;DHT22;50346;51.268;15.942;2022-07-30T03:58:46;18.60;1.00
6958;DHT22;50346;51.268;15.942;2022-07-30T04:01:12;18.60;1.00
6958;DHT22;50346;51.268;15.942;2022-07-30T04:03:38;18.60;1.00
6958;DHT22;50346;51.268;15.942;2022-07-30T04:06:04;18.60;1.00
6958;DHT22;50346;51.268;15.942;2022-07-30T04:08:29;18.60;1.00
6958;DHT22;50346;51.268;15.942;2022-07-30T04:10:55;18.50;1.00
6958;DHT22;50346;51.268;15.942;2022-07-30T04:13:21;18.50;1.00
6958;DHT22;50346;51.268;15.942;2022-07-30T04:18:36;18.50;1.00
6958;DHT22;50346;51.268;15.942;2022-07-30T04:21:04;18.40;1.00
6958;DHT22;50346;51.268;15.942;2022-07-30T04:23:32;18.50;1.00
6958;DHT22;50346;51.268;15.942;2022-07-30T04:25:59;18.40;1.00
6958;DHT22;50346;51.268;15.942;2022-07-30T04:28:26;18.40;1.00
6958;DHT22;50346;51.268;15.942;2022-07-30T04:30:53;18.40;1.00
6958;DHT22;50346;51.268;15.942;2022-07-30T04:33:19;18.40;1.00
6958;DHT22;50346;51.268;15.942;2022-07-30T04:35:45;18.40;1.00
6958;DHT22;50346;51.268;15.942;2022-07-30T04:38:11;18.40;31.30
6958;DHT22;50346;51.268;15.942;2022-07-30T04:40:39;18.30;95.70
6958;DHT22;50346;51.268;15.942;2022-07-30T04:43:05;18.30;99.90
6958;DHT22;50346;51.268;15.942;2022-07-30T04:45:31;18.20;99.90
6958;DHT22;50346;51.268;15.942;2022-07-30T04:47:56;18.10;99.90
6958;DHT22;50346;51.268;15.942;2022-07-30T04:50:24;18.10;99.90
6958;DHT22;50346;51.268;15.942;2022-07-30T04:52:53;18.00;1.00
6958;DHT22;50346;51.268;15.942;2022-07-30T04:55:20;17.90;99.90
6958;DHT22;50346;51.268;15.942;2022-07-30T04:57:49;17.80;99.90
6958;DHT22;50346;51.268;15.942;2022-07-30T05:00:16;17.80;1.00
6958;DHT22;50346;51.268;15.942;2022-07-30T05:05:10;17.70;99.90
6958;DHT22;50346;51.268;15.942;2022-07-30T05:10:05;17.60;1.00
6958;DHT22;50346;51.268;15.942;2022-07-30T05:12:34;17.50;1.00
6958;DHT22;50346;51.268;15.942;2022-07-30T05:15:05;17.50;1.00
6958;DHT22;50346;51.268;15.942;2022-07-30T05:17:32;17.40;1.00
6958;DHT22;50346;51.268;15.942;2022-07-30T05:19:58;17.30;1.00
6958;DHT22;50346;51.268;15.942;2022-07-30T05:22:23;17.30;1.00
6958;DHT22;50346;51.268;15.942;2022-07-30T05:24:58;17.30;1.00
6958;DHT22;50346;51.268;15.942;2022-07-30T05:27:24;17.20;19.30
6958;DHT22;50346;51.268;15.942;2022-07-30T05:29:49;17.20;33.50
6958;DHT22;50346;51.268;15.942;2022-07-30T05:32:15;17.20;42.30
6958;DHT22;50346;51.268;15.942;2022-07-30T05:34:41;17.20;52.20
6958;DHT22;50346;51.268;15.942;2022-07-30T05:37:06;17.10;59.60
6958;DHT22;50346;51.268;15.942;2022-07-30T05:39:32;17.10;49.80
6958;DHT22;50346;51.268;15.942;2022-07-30T05:41:58;17.10;53.30
6958;DHT22;50346;51.268;15.942;2022-07-30T05:44:23;17.20;57.70
6958;DHT22;50346;51.268;15.942;2022-07-30T05:46:49;17.10;58.10
6958;DHT22;50346;51.268;15.942;2022-07-30T05:49:14;17.10;64.60
6958;DHT22;50346;51.268;15.942;2022-07-30T05:51:41;17.10;70.70
6958;DHT22;50346;51.268;15.942;2022-07-30T05:54:07;17.10;92.40
6958;DHT22;50346;51.268;15.942;2022-07-30T05:56:33;17.00;95.10
6958;DHT22;50346;51.268;15.942;2022-07-30T05:58:59;17.10;95.50
6958;DHT22;50346;51.268;15.942;2022-07-30T06:01:24;17.10;96.50
6958;DHT22;50346;51.268;15.942;2022-07-30T06:03:50;17.10;97.10
6958;DHT22;50346;51.268;15.942;2022-07-30T06:06:15;17.10;98.10
6958;DHT22;50346;51.268;15.942;2022-07-30T06:08:41;17.10;99.40
6958;DHT22;50346;51.268;15.942;2022-07-30T06:11:08;17.20;99.90
6958;DHT22;50346;51.268;15.942;2022-07-30T06:13:34;17.20;99.90
6958;DHT22;50346;51.268;15.942;2022-07-30T06:16:00;17.20;99.90
6958;DHT22;50346;51.268;15.942;2022-07-30T06:18:26;17.20;99.90
6958;DHT22;50346;51.268;15.942;2022-07-30T06:20:52;17.20;97.70
6958;DHT22;50346;51.268;15.942;2022-07-30T06:23:22;17.20;95.30
6958;DHT22;50346;51.268;15.942;2022-07-30T06:25:48;17.20;96.10
6958;DHT22;50346;51.268;15.942;2022-07-30T06:28:15;17.10;96.40
6958;DHT22;50346;51.268;15.942;2022-07-30T06:30:40;17.20;96.10
6958;DHT22;50346;51.268;15.942;2022-07-30T06:33:06;17.20;95.60
6958;DHT22;50346;51.268;15.942;2022-07-30T06:35:32;17.20;94.00
6958;DHT22;50346;51.268;15.942;2022-07-30T06:37:59;17.20;93.30
6958;DHT22;50346;51.268;15.942;2022-07-30T06:40:24;17.10;92.10
6958;DHT22;50346;51.268;15.942;2022-07-30T06:42:50;17.10;89.80
6958;DHT22;50346;51.268;15.942;2022-07-30T06:45:16;17.10;89.20
6958;DHT22;50346;51.268;15.942;2022-07-30T06:47:42;17.00;86.80
6958;DHT22;50346;51.268;15.942;2022-07-30T06:50:08;17.00;88.50
6958;DHT22;50346;51.268;15.942;2022-07-30T06:52:33;16.90;89.30
6958;DHT22;50346;51.268;15.942;2022-07-30T06:54:59;16.90;91.00
6958;DHT22;50346;51.268;15.942;2022-07-30T06:57:25;16.90;92.70
6958;DHT22;50346;51.268;15.942;2022-07-30T06:59:50;16.90;94.20
6958;DHT22;50346;51.268;15.942;2022-07-30T07:02:16;16.90;94.50
6958;DHT22;50346;51.268;15.942;2022-07-30T07:04:42;16.90;94.70
6958;DHT22;50346;51.268;15.942;2022-07-30T07:07:07;16.80;98.10
6958;DHT22;50346;51.268;15.942;2022-07-30T07:16:51;16.60;94.70
6958;DHT22;50346;51.268;15.942;2022-07-30T07:19:17;16.60;96.60
6958;DHT22;50346;51.268;15.942;2022-07-30T07:21:43;16.60;97.70
6958;DHT22;50346;51.268;15.942;2022-07-30T07:26:34;16.50;99.90
6958;DHT22;50346;51.268;15.942;2022-07-30T07:29:01;16.50;99.90
6958;DHT22;50346;51.268;15.942;2022-07-30T07:31:26;16.50;99.90
6958;DHT22;50346;51.268;15.942;2022-07-30T07:33:52;16.50;99.90
6958;DHT22;50346;51.268;15.942;2022-07-30T07:36:21;16.50;99.90
6958;DHT22;50346;51.268;15.942;2022-07-30T07:38:47;16.50;99.90
6958;DHT22;50346;51.268;15.942;2022-07-30T07:41:13;16.40;99.90
6958;DHT22;50346;51.268;15.942;2022-07-30T07:43:39;16.40;99.90
6958;DHT22;50346;51.268;15.942;2022-07-30T07:46:05;16.40;99.90
6958;DHT22;50346;51.268;15.942;2022-07-30T07:48:30;16.30;99.90
6958;DHT22;50346;51.268;15.942;2022-07-30T07:50:56;16.20;99.90
6958;DHT22;50346;51.268;15.942;2022-07-30T07:53:22;16.10;99.90
6958;DHT22;50346;51.268;15.942;2022-07-30T07:55:47;16.10;99.90
6958;DHT22;50346;51.268;15.942;2022-07-30T07:58:14;16.00;99.90
6958;DHT22;50346;51.268;15.942;2022-07-30T08:00:40;16.00;99.90
6958;DHT22;50346;51.268;15.942;2022-07-30T08:05:32;15.80;99.90
6958;DHT22;50346;51.268;15.942;2022-07-30T08:07:58;15.80;99.90
6958;DHT22;50346;51.268;15.942;2022-07-30T08:10:24;15.70;99.90
6958;DHT22;50346;51.268;15.942;2022-07-30T08:12:49;15.70;99.90
6958;DHT22;50346;51.268;15.942;2022-07-30T08:15:15;15.70;99.90
6958;DHT22;50346;51.268;15.942;2022-07-30T08:17:43;15.80;99.90
6958;DHT22;50346;51.268;15.942;2022-07-30T08:20:09;15.80;99.90
6958;DHT22;50346;51.268;15.942;2022-07-30T08:22:35;15.90;99.90
6958;DHT22;50346;51.268;15.942;2022-07-30T08:25:01;15.90;99.90
6958;DHT22;50346;51.268;15.942;2022-07-30T08:27:28;15.90;99.90
6958;DHT22;50346;51.268;15.942;2022-07-30T08:29:54;15.80;99.90
6958;DHT22;50346;51.268;15.942;2022-07-30T08:32:19;15.80;99.90
6958;DHT22;50346;51.268;15.942;2022-07-30T08:34:45;15.70;99.90
6958;DHT22;50346;51.268;15.942;2022-07-30T08:37:10;15.70;99.90
6958;DHT22;50346;51.268;15.942;2022-07-30T08:39:36;15.70;99.90
6958;DHT22;50346;51.268;15.942;2022-07-30T08:42:03;15.70;99.90
6958;DHT22;50346;51.268;15.942;2022-07-30T08:44:29;15.70;99.90
6958;DHT22;50346;51.268;15.942;2022-07-30T08:46:56;15.80;99.90
6958;DHT22;50346;51.268;15.942;2022-07-30T08:49:23;15.90;99.90
6958;DHT22;50346;51.268;15.942;2022-07-30T08:51:49;16.00;99.90
6958;DHT22;50346;51.268;15.942;2022-07-30T08:54:16;16.00;99.90
6958;DHT22;50346;51.268;15.942;2022-07-30T08:56:43;16.00;99.90
6958;DHT22;50346;51.268;15.942;2022-07-30T08:59:09;15.90;99.90
6958;DHT22;50346;51.268;15.942;2022-07-30T09:01:35;15.80;99.90
6958;DHT22;50346;51.268;15.942;2022-07-30T09:04:01;15.70;99.90
6958;DHT22;50346;51.268;15.942;2022-07-30T09:06:27;15.70;99.90
6958;DHT22;50346;51.268;15.942;2022-07-30T09:08:53;15.70;99.90
6958;DHT22;50346;51.268;15.942;2022-07-30T09:11:19;15.70;99.90
6958;DHT22;50346;51.268;15.942;2022-07-30T09:13:45;15.70;99.90
6958;DHT22;50346;51.268;15.942;2022-07-30T09:16:22;15.60;99.90
6958;DHT22;50346;51.268;15.942;2022-07-30T09:18:49;15.60;99.90
6958;DHT22;50346;51.268;15.942;2022-07-30T09:21:27;15.60;99.90
6958;DHT22;50346;51.268;15.942;2022-07-30T09:26:28;15.60;99.90
6958;DHT22;50346;51.268;15.942;2022-07-30T09:28:54;15.60;99.90
6958;DHT22;50346;51.268;15.942;2022-07-30T09:31:21;15.60;99.90
6958;DHT22;50346;51.268;15.942;2022-07-30T09:33:47;15.60;99.90
6958;DHT22;50346;51.268;15.942;2022-07-30T09:36:16;15.60;99.90
6958;DHT22;50346;51.268;15.942;2022-07-30T09:38:46;15.60;99.90
6958;DHT22;50346;51.268;15.942;2022-07-30T09:41:13;15.70;99.90
6958;DHT22;50346;51.268;15.942;2022-07-30T09:43:50;15.60;99.90
6958;DHT22;50346;51.268;15.942;2022-07-30T09:46:17;15.60;99.90
6958;DHT22;50346;51.268;15.942;2022-07-30T09:48:43;15.70;99.90
6958;DHT22;50346;51.268;15.942;2022-07-30T09:51:11;15.70;99.90
6958;DHT22;50346;51.268;15.942;2022-07-30T09:53:56;15.60;99.90
6958;DHT22;50346;51.268;15.942;2022-07-30T09:56:27;15.70;99.90
6958;DHT22;50346;51.268;15.942;2022-07-30T09:58:53;15.70;99.90
6958;DHT22;50346;51.268;15.942;2022-07-30T10:01:20;15.70;99.90
6958;DHT22;50346;51.268;15.942;2022-07-30T10:03:45;15.80;99.90
6958;DHT22;50346;51.268;15.942;2022-07-30T10:06:12;15.90;99.90
6958;DHT22;50346;51.268;15.942;2022-07-30T10:08:38;15.90;99.90
6958;DHT22;50346;51.268;15.942;2022-07-30T10:11:05;16.00;99.90
6958;DHT22;50346;51.268;15.942;2022-07-30T10:13:32;16.10;99.90
6958;DHT22;50346;51.268;15.942;2022-07-30T10:15:58;16.20;99.90
6958;DHT22;50346;51.268;15.942;2022-07-30T10:18:24;16.30;99.90
6958;DHT22;50346;51.268;15.942;2022-07-30T10:20:50;16.30;99.90
6958;DHT22;50346;51.268;15.942;2022-07-30T10:23:16;16.30;99.90
6958;DHT22;50346;51.268;15.942;2022-07-30T10:25:42;16.30;99.90
6958;DHT22;50346;51.268;15.942;2022-07-30T10:28:09;16.30;99.90
6958;DHT22;50346;51.268;15.942;2022-07-30T10:30:35;16.30;99.90
6958;DHT22;50346;51.268;15.942;2022-07-30T10:33:01;16.40;99.90
6958;DHT22;50346;51.268;15.942;2022-07-30T10:35:28;16.40;99.90
6958;DHT22;50346;51.268;15.942;2022-07-30T10:37:55;16.50;99.90
6958;DHT22;50346;51.268;15.942;2022-07-30T10:40:35;16.50;99.90
6958;DHT22;50346;51.268;15.942;2022-07-30T10:43:06;16.60;99.90
6958;DHT22;50346;51.268;15.942;2022-07-30T10:45:49;16.60;99.90
6958;DHT22;50346;51.268;15.942;2022-07-30T11:48:33;17.30;99.90
6958;DHT22;50346;51.268;15.942;2022-07-30T11:50:59;17.30;99.90
6958;DHT22;50346;51.268;15.942;2022-07-30T11:53:24;17.40;99.90
6958;DHT22;50346;51.268;15.942;2022-07-30T11:55:53;17.40;99.90
6958;DHT22;50346;51.268;15.942;2022-07-30T11:58:35;17.40;99.90
6958;DHT22;50346;51.268;15.942;2022-07-30T12:01:15;17.30;99.90
6958;DHT22;50346;51.268;15.942;2022-07-30T12:03:42;17.30;99.90
6958;DHT22;50346;51.268;15.942;2022-07-30T12:06:13;17.30;99.90
6958;DHT22;50346;51.268;15.942;2022-07-30T12:08:44;17.30;99.90
6958;DHT22;50346;51.268;15.942;2022-07-30T12:11:10;17.30;99.90
6958;DHT22;50346;51.268;15.942;2022-07-30T12:13:38;17.30;99.90
6958;DHT22;50346;51.268;15.942;2022-07-30T12:16:08;17.30;99.90
6958;DHT22;50346;51.268;15.942;2022-07-30T12:18:34;17.30;99.90
6958;DHT22;50346;51.268;15.942;2022-07-30T12:21:05;17.30;99.90
6958;DHT22;50346;51.268;15.942;2022-07-30T12:23:34;17.30;99.90
6958;DHT22;50346;51.268;15.942;2022-07-30T12:26:01;17.30;99.90
6958;DHT22;50346;51.268;15.942;2022-07-30T12:28:28;17.20;99.90
6958;DHT22;50346;51.268;15.942;2022-07-30T12:30:56;17.30;99.90
6958;DHT22;50346;51.268;15.942;2022-07-30T12:33:22;17.30;99.90
6958;DHT22;50346;51.268;15.942;2022-07-30T12:35:53;17.30;99.90
6958;DHT22;50346;51.268;15.942;2022-07-30T12:38:21;17.30;99.90
6958;DHT22;50346;51.268;15.942;2022-07-30T12:46:08;17.10;99.90
6958;DHT22;50346;51.268;15.942;2022-07-30T12:48:34;17.10;99.90
6958;DHT22;50346;51.268;15.942;2022-07-30T12:51:07;17.10;99.90
6958;DHT22;50346;51.268;15.942;2022-07-30T12:53:33;17.10;99.90
6958;DHT22;50346;51.268;15.942;2022-07-30T12:56:13;17.10;99.90
6958;DHT22;50346;51.268;15.942;2022-07-30T12:58:40;17.00;99.90
6958;DHT22;50346;51.268;15.942;2022-07-30T13:01:06;17.00;99.90
6958;DHT22;50346;51.268;15.942;2022-07-30T13:03:32;17.00;99.90
6958;DHT22;50346;51.268;15.942;2022-07-30T13:06:12;16.90;99.90
6958;DHT22;50346;51.268;15.942;2022-07-30T13:08:53;16.90;99.90
6958;DHT22;50346;51.268;15.942;2022-07-30T13:11:22;16.90;99.90
6958;DHT22;50346;51.268;15.942;2022-07-30T13:13:49;16.90;99.90
6958;DHT22;50346;51.268;15.942;2022-07-30T13:16:15;16.90;99.90
6958;DHT22;50346;51.268;15.942;2022-07-30T13:18:41;16.90;99.90
6958;DHT22;50346;51.268;15.942;2022-07-30T13:21:08;16.90;99.90
6958;DHT22;50346;51.268;15.942;2022-07-30T13:23:35;16.90;99.90
6958;DHT22;50346;51.268;15.942;2022-07-30T13:26:02;16.90;99.90
6958;DHT22;50346;51.268;15.942;2022-07-30T13:28:27;16.90;99.90
6958;DHT22;50346;51.268;15.942;2022-07-30T13:30:55;16.80;99.90
6958;DHT22;50346;51.268;15.942;2022-07-30T13:33:21;16.80;99.90
6958;DHT22;50346;51.268;15.942;2022-07-30T13:35:46;16.80;99.90
6958;DHT22;50346;51.268;15.942;2022-07-30T13:38:12;16.80;99.90
6958;DHT22;50346;51.268;15.942;2022-07-30T13:40:38;16.80;99.90
6958;DHT22;50346;51.268;15.942;2022-07-30T13:43:04;16.80;99.90
6958;DHT22;50346;51.268;15.942;2022-07-30T13:45:30;16.80;99.90
6958;DHT22;50346;51.268;15.942;2022-07-30T13:47:55;16.80;99.90
6958;DHT22;50346;51.268;15.942;2022-07-30T13:50:21;16.70;99.90
6958;DHT22;50346;51.268;15.942;2022-07-30T13:52:47;16.80;99.90
6958;DHT22;50346;51.268;15.942;2022-07-30T13:55:12;16.70;99.90
6958;DHT22;50346;51.268;15.942;2022-07-30T13:57:38;16.70;99.90
6958;DHT22;50346;51.268;15.942;2022-07-30T14:00:05;16.80;99.90
6958;DHT22;50346;51.268;15.942;2022-07-30T14:02:31;16.70;99.90
6958;DHT22;50346;51.268;15.942;2022-07-30T14:04:57;16.70;99.90
6958;DHT22;50346;51.268;15.942;2022-07-30T14:07:23;16.70;99.90
6958;DHT22;50346;51.268;15.942;2022-07-30T14:09:48;16.70;99.90
6958;DHT22;50346;51.268;15.942;2022-07-30T14:12:14;16.70;99.90
6958;DHT22;50346;51.268;15.942;2022-07-30T14:14:40;16.80;99.90
6958;DHT22;50346;51.268;15.942;2022-07-30T14:17:06;16.70;99.90
6958;DHT22;50346;51.268;15.942;2022-07-30T14:19:32;16.70;99.90
6958;DHT22;50346;51.268;15.942;2022-07-30T14:21:57;16.80;99.90
6958;DHT22;50346;51.268;15.942;2022-07-30T14:24:23;16.80;99.90
6958;DHT22;50346;51.268;15.942;2022-07-30T14:26:49;16.80;99.90
6958;DHT22;50346;51.268;15.942;2022-07-30T14:29:16;16.80;99.90
6958;DHT22;50346;51.268;15.942;2022-07-30T14:31:42;16.80;99.90
6958;DHT22;50346;51.268;15.942;2022-07-30T14:34:08;16.80;99.90
6958;DHT22;50346;51.268;15.942;2022-07-30T14:36:34;16.80;99.90
6958;DHT22;50346;51.268;15.942;2022-07-30T14:39:03;16.80;99.90
6958;DHT22;50346;51.268;15.942;2022-07-30T14:41:30;16.80;99.90
6958;DHT22;50346;51.268;15.942;2022-07-30T14:43:56;16.80;99.90
6958;DHT22;50346;51.268;15.942;2022-07-30T14:46:22;16.70;99.90
6958;DHT22;50346;51.268;15.942;2022-07-30T14:48:48;16.80;99.90
6958;DHT22;50346;51.268;15.942;2022-07-30T14:51:14;16.80;99.90
6958;DHT22;50346;51.268;15.942;2022-07-30T14:53:40;16.80;99.90
6958;DHT22;50346;51.268;15.942;2022-07-30T14:56:05;16.80;99.90
6958;DHT22;50346;51.268;15.942;2022-07-30T14:58:31;16.80;99.90
6958;DHT22;50346;51.268;15.942;2022-07-30T15:00:57;16.70;99.90
6958;DHT22;50346;51.268;15.942;2022-07-30T15:03:22;16.80;99.90
6958;DHT22;50346;51.268;15.942;2022-07-30T15:05:48;16.80;99.90
6958;DHT22;50346;51.268;15.942;2022-07-30T15:08:13;16.80;99.90
6958;DHT22;50346;51.268;15.942;2022-07-30T15:10:39;16.80;99.90
6958;DHT22;50346;51.268;15.942;2022-07-30T15:13:05;16.80;99.90
6958;DHT22;50346;51.268;15.942;2022-07-30T15:15:31;16.70;99.90
6958;DHT22;50346;51.268;15.942;2022-07-30T15:17:58;16.70;99.90
6958;DHT22;50346;51.268;15.942;2022-07-30T15:20:23;16.80;99.90
6958;DHT22;50346;51.268;15.942;2022-07-30T15:22:49;16.80;99.90
6958;DHT22;50346;51.268;15.942;2022-07-30T15:25:15;16.80;99.90
6958;DHT22;50346;51.268;15.942;2022-07-30T15:27:40;16.80;99.90
6958;DHT22;50346;51.268;15.942;2022-07-30T15:30:06;16.90;99.90
6958;DHT22;50346;51.268;15.942;2022-07-30T15:32:32;16.90;99.90
6958;DHT22;50346;51.268;15.942;2022-07-30T15:34:58;16.90;99.90
6958;DHT22;50346;51.268;15.942;2022-07-30T15:37:24;16.90;99.90
6958;DHT22;50346;51.268;15.942;2022-07-30T15:39:49;16.90;99.90
6958;DHT22;50346;51.268;15.942;2022-07-30T15:42:15;16.90;99.90
6958;DHT22;50346;51.268;15.942;2022-07-30T15:44:41;16.90;99.90
6958;DHT22;50346;51.268;15.942;2022-07-30T15:47:06;16.90;99.90
6958;DHT22;50346;51.268;15.942;2022-07-30T15:49:32;16.90;99.90
6958;DHT22;50346;51.268;15.942;2022-07-30T15:51:59;16.90;99.90
6958;DHT22;50346;51.268;15.942;2022-07-30T15:54:25;16.80;99.90
6958;DHT22;50346;51.268;15.942;2022-07-30T15:56:52;16.90;99.90
6958;DHT22;50346;51.268;15.942;2022-07-30T15:59:20;16.90;99.90
6958;DHT22;50346;51.268;15.942;2022-07-30T16:01:46;16.90;99.90
6958;DHT22;50346;51.268;15.942;2022-07-30T16:04:13;16.90;99.90
6958;DHT22;50346;51.268;15.942;2022-07-30T16:06:38;16.90;99.90
6958;DHT22;50346;51.268;15.942;2022-07-30T16:09:04;16.80;99.90
6958;DHT22;50346;51.268;15.942;2022-07-30T16:11:31;16.80;99.90
6958;DHT22;50346;51.268;15.942;2022-07-30T16:13:57;16.80;99.90
6958;DHT22;50346;51.268;15.942;2022-07-30T16:16:23;16.80;99.90
6958;DHT22;50346;51.268;15.942;2022-07-30T16:18:48;16.80;99.90
6958;DHT22;50346;51.268;15.942;2022-07-30T16:21:14;16.90;99.90
6958;DHT22;50346;51.268;15.942;2022-07-30T16:23:40;16.80;99.90
6958;DHT22;50346;51.268;15.942;2022-07-30T16:26:08;16.80;99.90
6958;DHT22;50346;51.268;15.942;2022-07-30T16:28:33;16.80;99.90
6958;DHT22;50346;51.268;15.942;2022-07-30T16:30:59;16.80;99.90
6958;DHT22;50346;51.268;15.942;2022-07-30T16:33:24;16.80;99.90
6958;DHT22;50346;51.268;15.942;2022-07-30T16:35:50;16.80;99.90
6958;DHT22;50346;51.268;15.942;2022-07-30T16:38:16;16.80;99.90
6958;DHT22;50346;51.268;15.942;2022-07-30T16:40:41;16.80;99.90
6958;DHT22;50346;51.268;15.942;2022-07-30T16:43:07;16.90;99.90
6958;DHT22;50346;51.268;15.942;2022-07-30T16:45:33;16.90;99.90
6958;DHT22;50346;51.268;15.942;2022-07-30T16:48:00;16.80;99.90
6958;DHT22;50346;51.268;15.942;2022-07-30T16:50:25;16.80;99.90
6958;DHT22;50346;51.268;15.942;2022-07-30T16:52:51;16.80;99.90
6958;DHT22;50346;51.268;15.942;2022-07-30T16:55:17;16.80;99.90
6958;DHT22;50346;51.268;15.942;2022-07-30T16:57:42;16.80;99.90
6958;DHT22;50346;51.268;15.942;2022-07-30T17:00:09;16.80;99.90
6958;DHT22;50346;51.268;15.942;2022-07-30T17:02:36;16.80;99.90
6958;DHT22;50346;51.268;15.942;2022-07-30T17:05:02;16.80;99.90